sensor_id;sensor_type;location;lat;lon;timestamp;P1;durP1;ratioP1;P2;durP2;ratioP2
41217;SDS011;26950;50.960;7.138;2023-04-28T00:00:16;7.07;;;3.37;;
41217;SDS011;26950;50.960;7.138;2023-04-28T00:02:43;7.83;;;3.53;;
41217;SDS011;26950;50.960;7.138;2023-04-28T00:05:09;8.77;;;3.63;;
41217;SDS011;26950;50.960;7.138;2023-04-28T00:07:36;7.67;;;3.73;;
41217;SDS011;26950;50.960;7.138;2023-04-28T00:10:04;8.83;;;3.70;;
41217;SDS011;26950;50.960;7.138;2023-04-28T00:12:31;7.70;;;3.70;;
41217;SDS011;26950;50.960;7.138;2023-04-28T00:14:58;11.80;;;4.13;;
41217;SDS011;26950;50.960;7.138;2023-04-28T00:17:25;9.20;;;3.60;;
41217;SDS011;26950;50.960;7.138;2023-04-28T00:19:51;11.47;;;3.70;;
41217;SDS011;26950;50.960;7.138;2023-04-28T00:22:18;10.80;;;3.53;;
41217;SDS011;26950;50.960;7.138;2023-04-28T00:24:44;8.77;;;3.77;;
41217;SDS011;26950;50.960;7.138;2023-04-28T00:27:12;7.47;;;3.70;;
41217;SDS011;26950;50.960;7.138;2023-04-28T00:29:38;12.33;;;3.90;;
41217;SDS011;26950;50.960;7.138;2023-04-28T00:32:05;10.17;;;3.57;;
41217;SDS011;26950;50.960;7.138;2023-04-28T00:34:31;9.80;;;3.73;;
41217;SDS011;26950;50.960;7.138;2023-04-28T00:36:58;10.03;;;3.47;;
41217;SDS011;26950;50.960;7.138;2023-04-28T00:39:25;8.53;;;3.70;;
41217;SDS011;26950;50.960;7.138;2023-04-28T00:41:51;6.83;;;3.57;;
41217;SDS011;26950;50.960;7.138;2023-04-28T00:44:19;11.70;;;3.73;;
41217;SDS011;26950;50.960;7.138;2023-04-28T00:46:46;8.77;;;3.53;;
41217;SDS011;26950;50.960;7.138;2023-04-28T00:49:13;6.87;;;3.23;;
41217;SDS011;26950;50.960;7.138;2023-04-28T00:51:40;7.73;;;3.37;;
41217;SDS011;26950;50.960;7.138;2023-04-28T00:54:07;6.57;;;3.37;;
41217;SDS011;26950;50.960;7.138;2023-04-28T00:56:34;7.07;;;3.20;;
41217;SDS011;26950;50.960;7.138;2023-04-28T00:59:01;10.90;;;3.53;;
41217;SDS011;26950;50.960;7.138;2023-04-28T01:01:29;8.23;;;3.47;;
41217;SDS011;26950;50.960;7.138;2023-04-28T01:03:57;10.83;;;3.37;;
41217;SDS011;26950;50.960;7.138;2023-04-28T01:06:24;7.13;;;3.20;;
41217;SDS011;26950;50.960;7.138;2023-04-28T01:08:50;11.83;;;3.40;;
41217;SDS011;26950;50.960;7.138;2023-04-28T01:11:17;9.23;;;3.77;;
41217;SDS011;26950;50.960;7.138;2023-04-28T01:13:43;6.83;;;3.40;;
41217;SDS011;26950;50.960;7.138;2023-04-28T01:16:10;8.57;;;3.53;;
41217;SDS011;26950;50.960;7.138;2023-04-28T01:18:38;7.80;;;3.50;;
41217;SDS011;26950;50.960;7.138;2023-04-28T01:21:11;9.37;;;3.33;;
41217;SDS011;26950;50.960;7.138;2023-04-28T01:23:38;7.47;;;3.17;;
41217;SDS011;26950;50.960;7.138;2023-04-28T01:26:05;8.27;;;3.13;;
41217;SDS011;26950;50.960;7.138;2023-04-28T01:28:32;6.83;;;3.20;;
41217;SDS011;26950;50.960;7.138;2023-04-28T01:30:58;10.07;;;3.63;;
41217;SDS011;26950;50.960;7.138;2023-04-28T01:33:25;11.43;;;3.50;;
41217;SDS011;26950;50.960;7.138;2023-04-28T01:35:51;7.73;;;3.47;;
41217;SDS011;26950;50.960;7.138;2023-04-28T01:38:22;8.07;;;3.63;;
41217;SDS011;26950;50.960;7.138;2023-04-28T01:40:49;7.67;;;3.60;;
41217;SDS011;26950;50.960;7.138;2023-04-28T01:43:16;8.33;;;3.60;;
41217;SDS011;26950;50.960;7.138;2023-04-28T01:45:43;9.53;;;4.00;;
41217;SDS011;26950;50.960;7.138;2023-04-28T01:48:10;10.23;;;4.07;;
41217;SDS011;26950;50.960;7.138;2023-04-28T01:50:36;8.03;;;3.93;;
41217;SDS011;26950;50.960;7.138;2023-04-28T01:53:02;9.87;;;3.97;;
41217;SDS011;26950;50.960;7.138;2023-04-28T01:55:29;7.57;;;3.63;;
41217;SDS011;26950;50.960;7.138;2023-04-28T01:57:55;12.47;;;4.23;;
41217;SDS011;26950;50.960;7.138;2023-04-28T02:00:23;6.10;;;3.87;;
41217;SDS011;26950;50.960;7.138;2023-04-28T02:02:51;9.40;;;4.30;;
41217;SDS011;26950;50.960;7.138;2023-04-28T02:05:17;10.37;;;4.47;;
41217;SDS011;26950;50.960;7.138;2023-04-28T02:07:44;8.47;;;4.03;;
41217;SDS011;26950;50.960;7.138;2023-04-28T02:10:10;9.30;;;4.20;;
41217;SDS011;26950;50.960;7.138;2023-04-28T02:12:36;11.10;;;4.10;;
41217;SDS011;26950;50.960;7.138;2023-04-28T02:15:03;7.87;;;4.37;;
41217;SDS011;26950;50.960;7.138;2023-04-28T02:17:32;8.73;;;4.27;;
41217;SDS011;26950;50.960;7.138;2023-04-28T02:19:58;10.10;;;4.30;;
41217;SDS011;26950;50.960;7.138;2023-04-28T02:22:25;11.80;;;4.27;;
41217;SDS011;26950;50.960;7.138;2023-04-28T02:24:51;7.47;;;4.17;;
41217;SDS011;26950;50.960;7.138;2023-04-28T02:27:18;7.47;;;4.20;;
41217;SDS011;26950;50.960;7.138;2023-04-28T02:29:44;8.30;;;3.93;;
41217;SDS011;26950;50.960;7.138;2023-04-28T02:32:11;10.10;;;4.70;;
41217;SDS011;26950;50.960;7.138;2023-04-28T02:34:39;8.90;;;4.50;;
41217;SDS011;26950;50.960;7.138;2023-04-28T02:37:05;10.23;;;4.53;;
41217;SDS011;26950;50.960;7.138;2023-04-28T02:39:32;7.27;;;3.80;;
41217;SDS011;26950;50.960;7.138;2023-04-28T02:41:58;9.73;;;4.53;;
41217;SDS011;26950;50.960;7.138;2023-04-28T02:44:25;9.53;;;4.70;;
41217;SDS011;26950;50.960;7.138;2023-04-28T02:46:51;12.00;;;5.20;;
41217;SDS011;26950;50.960;7.138;2023-04-28T02:49:18;7.03;;;4.57;;
41217;SDS011;26950;50.960;7.138;2023-04-28T02:51:45;9.70;;;4.80;;
41217;SDS011;26950;50.960;7.138;2023-04-28T02:54:12;7.80;;;4.33;;
41217;SDS011;26950;50.960;7.138;2023-04-28T02:56:38;11.13;;;4.77;;
41217;SDS011;26950;50.960;7.138;2023-04-28T02:59:05;11.23;;;4.60;;
41217;SDS011;26950;50.960;7.138;2023-04-28T03:01:31;9.17;;;4.73;;
41217;SDS011;26950;50.960;7.138;2023-04-28T03:03:58;9.30;;;4.47;;
41217;SDS011;26950;50.960;7.138;2023-04-28T03:06:24;10.33;;;4.40;;
41217;SDS011;26950;50.960;7.138;2023-04-28T03:08:53;12.23;;;4.70;;
41217;SDS011;26950;50.960;7.138;2023-04-28T03:11:20;7.60;;;4.80;;
41217;SDS011;26950;50.960;7.138;2023-04-28T03:13:46;15.17;;;4.90;;
41217;SDS011;26950;50.960;7.138;2023-04-28T03:16:12;8.40;;;4.70;;
41217;SDS011;26950;50.960;7.138;2023-04-28T03:18:39;9.80;;;4.97;;
41217;SDS011;26950;50.960;7.138;2023-04-28T03:21:05;8.93;;;5.00;;
41217;SDS011;26950;50.960;7.138;2023-04-28T03:23:32;9.67;;;5.07;;
41217;SDS011;26950;50.960;7.138;2023-04-28T03:26:00;11.13;;;4.90;;
41217;SDS011;26950;50.960;7.138;2023-04-28T03:28:26;8.70;;;4.87;;
41217;SDS011;26950;50.960;7.138;2023-04-28T03:30:53;13.20;;;5.13;;
41217;SDS011;26950;50.960;7.138;2023-04-28T03:33:20;11.33;;;5.10;;
41217;SDS011;26950;50.960;7.138;2023-04-28T03:35:46;11.37;;;5.07;;
41217;SDS011;26950;50.960;7.138;2023-04-28T03:38:12;8.73;;;4.97;;
41217;SDS011;26950;50.960;7.138;2023-04-28T03:40:39;11.97;;;5.83;;
41217;SDS011;26950;50.960;7.138;2023-04-28T03:43:07;11.53;;;4.43;;
41217;SDS011;26950;50.960;7.138;2023-04-28T03:45:33;14.23;;;5.10;;
41217;SDS011;26950;50.960;7.138;2023-04-28T03:48:00;8.00;;;4.83;;
41217;SDS011;26950;50.960;7.138;2023-04-28T03:50:27;12.20;;;5.37;;
41217;SDS011;26950;50.960;7.138;2023-04-28T03:52:54;8.90;;;5.03;;
41217;SDS011;26950;50.960;7.138;2023-04-28T03:55:20;9.60;;;5.23;;
41217;SDS011;26950;50.960;7.138;2023-04-28T03:57:47;13.07;;;5.43;;
41217;SDS011;26950;50.960;7.138;2023-04-28T04:00:15;10.03;;;5.33;;
41217;SDS011;26950;50.960;7.138;2023-04-28T04:02:42;10.13;;;5.20;;
41217;SDS011;26950;50.960;7.138;2023-04-28T04:05:08;12.03;;;5.60;;
41217;SDS011;26950;50.960;7.138;2023-04-28T04:07:35;14.97;;;5.60;;
41217;SDS011;26950;50.960;7.138;2023-04-28T04:10:01;10.13;;;5.23;;
41217;SDS011;26950;50.960;7.138;2023-04-28T04:12:28;9.30;;;5.13;;
41217;SDS011;26950;50.960;7.138;2023-04-28T04:14:54;11.40;;;5.50;;
41217;SDS011;26950;50.960;7.138;2023-04-28T04:17:22;14.27;;;5.73;;
41217;SDS011;26950;50.960;7.138;2023-04-28T04:19:48;8.17;;;5.30;;
41217;SDS011;26950;50.960;7.138;2023-04-28T04:22:15;14.50;;;6.10;;
41217;SDS011;26950;50.960;7.138;2023-04-28T04:24:41;13.67;;;5.53;;
41217;SDS011;26950;50.960;7.138;2023-04-28T04:27:08;10.30;;;5.60;;
41217;SDS011;26950;50.960;7.138;2023-04-28T04:29:34;8.57;;;5.33;;
41217;SDS011;26950;50.960;7.138;2023-04-28T04:32:01;10.43;;;5.30;;
41217;SDS011;26950;50.960;7.138;2023-04-28T04:34:28;9.90;;;5.83;;
41217;SDS011;26950;50.960;7.138;2023-04-28T04:36:55;14.37;;;5.70;;
41217;SDS011;26950;50.960;7.138;2023-04-28T04:39:21;11.63;;;5.53;;
41217;SDS011;26950;50.960;7.138;2023-04-28T04:41:48;10.23;;;6.00;;
41217;SDS011;26950;50.960;7.138;2023-04-28T04:44:14;8.73;;;5.37;;
41217;SDS011;26950;50.960;7.138;2023-04-28T04:46:41;9.47;;;5.27;;
41217;SDS011;26950;50.960;7.138;2023-04-28T04:49:07;9.50;;;5.60;;
41217;SDS011;26950;50.960;7.138;2023-04-28T04:51:35;11.27;;;5.37;;
41217;SDS011;26950;50.960;7.138;2023-04-28T04:54:01;9.80;;;5.37;;
41217;SDS011;26950;50.960;7.138;2023-04-28T04:56:28;11.07;;;5.33;;
41217;SDS011;26950;50.960;7.138;2023-04-28T04:58:54;13.60;;;5.73;;
41217;SDS011;26950;50.960;7.138;2023-04-28T05:01:21;12.80;;;6.20;;
41217;SDS011;26950;50.960;7.138;2023-04-28T05:03:48;13.17;;;5.63;;
41217;SDS011;26950;50.960;7.138;2023-04-28T05:06:14;12.27;;;5.73;;
41217;SDS011;26950;50.960;7.138;2023-04-28T05:08:42;9.83;;;5.07;;
41217;SDS011;26950;50.960;7.138;2023-04-28T05:11:08;8.83;;;4.93;;
41217;SDS011;26950;50.960;7.138;2023-04-28T05:13:35;11.10;;;5.47;;
41217;SDS011;26950;50.960;7.138;2023-04-28T05:16:03;9.83;;;5.30;;
41217;SDS011;26950;50.960;7.138;2023-04-28T05:18:30;9.23;;;5.60;;
41217;SDS011;26950;50.960;7.138;2023-04-28T05:20:57;9.60;;;5.30;;
41217;SDS011;26950;50.960;7.138;2023-04-28T05:23:23;8.50;;;5.00;;
41217;SDS011;26950;50.960;7.138;2023-04-28T05:25:51;12.83;;;5.70;;
41217;SDS011;26950;50.960;7.138;2023-04-28T05:28:18;10.47;;;5.30;;
41217;SDS011;26950;50.960;7.138;2023-04-28T05:30:45;11.27;;;5.80;;
41217;SDS011;26950;50.960;7.138;2023-04-28T05:33:12;10.17;;;5.07;;
41217;SDS011;26950;50.960;7.138;2023-04-28T05:35:38;8.23;;;5.03;;
41217;SDS011;26950;50.960;7.138;2023-04-28T05:38:05;10.10;;;4.93;;
41217;SDS011;26950;50.960;7.138;2023-04-28T05:40:32;10.23;;;5.60;;
41217;SDS011;26950;50.960;7.138;2023-04-28T05:42:59;8.80;;;4.90;;
41217;SDS011;26950;50.960;7.138;2023-04-28T05:45:26;10.37;;;5.07;;
41217;SDS011;26950;50.960;7.138;2023-04-28T05:47:52;10.30;;;5.33;;
41217;SDS011;26950;50.960;7.138;2023-04-28T05:50:19;8.10;;;4.80;;
41217;SDS011;26950;50.960;7.138;2023-04-28T05:52:45;9.13;;;4.60;;
41217;SDS011;26950;50.960;7.138;2023-04-28T05:55:12;12.23;;;5.13;;
41217;SDS011;26950;50.960;7.138;2023-04-28T05:57:38;8.13;;;5.20;;
41217;SDS011;26950;50.960;7.138;2023-04-28T06:00:07;9.80;;;4.77;;
41217;SDS011;26950;50.960;7.138;2023-04-28T06:02:34;10.20;;;4.90;;
41217;SDS011;26950;50.960;7.138;2023-04-28T06:05:00;8.67;;;4.97;;
41217;SDS011;26950;50.960;7.138;2023-04-28T06:07:27;10.93;;;4.73;;
41217;SDS011;26950;50.960;7.138;2023-04-28T06:09:53;8.97;;;5.20;;
41217;SDS011;26950;50.960;7.138;2023-04-28T06:12:20;11.77;;;5.30;;
41217;SDS011;26950;50.960;7.138;2023-04-28T06:14:46;9.93;;;5.27;;
41217;SDS011;26950;50.960;7.138;2023-04-28T06:17:14;11.83;;;5.30;;
41217;SDS011;26950;50.960;7.138;2023-04-28T06:19:40;11.73;;;5.87;;
41217;SDS011;26950;50.960;7.138;2023-04-28T06:22:07;10.40;;;5.20;;
41217;SDS011;26950;50.960;7.138;2023-04-28T06:24:33;11.90;;;5.27;;
41217;SDS011;26950;50.960;7.138;2023-04-28T06:27:00;10.20;;;5.47;;
41217;SDS011;26950;50.960;7.138;2023-04-28T06:29:27;10.33;;;5.20;;
41217;SDS011;26950;50.960;7.138;2023-04-28T06:31:54;12.00;;;5.77;;
41217;SDS011;26950;50.960;7.138;2023-04-28T06:34:23;9.00;;;5.37;;
41217;SDS011;26950;50.960;7.138;2023-04-28T06:36:52;9.93;;;5.10;;
41217;SDS011;26950;50.960;7.138;2023-04-28T06:39:19;12.03;;;5.47;;
41217;SDS011;26950;50.960;7.138;2023-04-28T06:41:46;9.73;;;5.73;;
41217;SDS011;26950;50.960;7.138;2023-04-28T06:44:12;8.53;;;5.80;;
41217;SDS011;26950;50.960;7.138;2023-04-28T06:46:39;12.47;;;5.93;;
41217;SDS011;26950;50.960;7.138;2023-04-28T06:49:05;11.73;;;5.50;;
41217;SDS011;26950;50.960;7.138;2023-04-28T06:51:33;12.17;;;5.47;;
41217;SDS011;26950;50.960;7.138;2023-04-28T06:54:00;10.53;;;5.63;;
41217;SDS011;26950;50.960;7.138;2023-04-28T06:56:27;12.23;;;5.87;;
41217;SDS011;26950;50.960;7.138;2023-04-28T06:58:54;10.77;;;5.30;;
41217;SDS011;26950;50.960;7.138;2023-04-28T07:01:21;12.03;;;5.80;;
41217;SDS011;26950;50.960;7.138;2023-04-28T07:03:47;10.53;;;5.70;;
41217;SDS011;26950;50.960;7.138;2023-04-28T07:06:14;10.60;;;5.70;;
41217;SDS011;26950;50.960;7.138;2023-04-28T07:08:42;10.10;;;5.60;;
41217;SDS011;26950;50.960;7.138;2023-04-28T07:11:09;9.53;;;5.47;;
41217;SDS011;26950;50.960;7.138;2023-04-28T07:13:35;10.17;;;5.60;;
41217;SDS011;26950;50.960;7.138;2023-04-28T07:16:02;10.43;;;5.40;;
41217;SDS011;26950;50.960;7.138;2023-04-28T07:18:29;11.07;;;5.23;;
41217;SDS011;26950;50.960;7.138;2023-04-28T07:20:55;12.73;;;4.77;;
41217;SDS011;26950;50.960;7.138;2023-04-28T07:23:22;8.10;;;4.87;;
41217;SDS011;26950;50.960;7.138;2023-04-28T07:25:50;14.67;;;6.00;;
41217;SDS011;26950;50.960;7.138;2023-04-28T07:28:16;8.90;;;5.40;;
41217;SDS011;26950;50.960;7.138;2023-04-28T07:30:43;10.33;;;5.30;;
41217;SDS011;26950;50.960;7.138;2023-04-28T07:33:09;10.53;;;5.33;;
41217;SDS011;26950;50.960;7.138;2023-04-28T07:35:35;10.07;;;5.47;;
41217;SDS011;26950;50.960;7.138;2023-04-28T07:38:02;9.43;;;5.10;;
41217;SDS011;26950;50.960;7.138;2023-04-28T07:40:28;7.67;;;4.87;;
41217;SDS011;26950;50.960;7.138;2023-04-28T07:42:56;9.87;;;5.27;;
41217;SDS011;26950;50.960;7.138;2023-04-28T07:45:23;9.23;;;5.37;;
41217;SDS011;26950;50.960;7.138;2023-04-28T07:47:50;12.63;;;5.20;;
41217;SDS011;26950;50.960;7.138;2023-04-28T07:50:16;12.90;;;5.37;;
41217;SDS011;26950;50.960;7.138;2023-04-28T07:52:43;16.27;;;5.67;;
41217;SDS011;26950;50.960;7.138;2023-04-28T07:55:09;12.30;;;4.90;;
41217;SDS011;26950;50.960;7.138;2023-04-28T07:57:36;9.53;;;5.00;;
41217;SDS011;26950;50.960;7.138;2023-04-28T08:00:04;10.13;;;5.30;;
41217;SDS011;26950;50.960;7.138;2023-04-28T08:02:32;9.63;;;5.30;;
41217;SDS011;26950;50.960;7.138;2023-04-28T08:04:59;8.17;;;5.27;;
41217;SDS011;26950;50.960;7.138;2023-04-28T08:07:25;10.23;;;5.10;;
41217;SDS011;26950;50.960;7.138;2023-04-28T08:09:51;10.83;;;5.20;;
41217;SDS011;26950;50.960;7.138;2023-04-28T08:12:19;8.47;;;4.87;;
41217;SDS011;26950;50.960;7.138;2023-04-28T08:14:46;12.73;;;5.40;;
41217;SDS011;26950;50.960;7.138;2023-04-28T08:17:14;14.03;;;5.77;;
41217;SDS011;26950;50.960;7.138;2023-04-28T08:19:40;6.53;;;4.97;;
41217;SDS011;26950;50.960;7.138;2023-04-28T08:22:10;6.77;;;5.10;;
41217;SDS011;26950;50.960;7.138;2023-04-28T08:24:36;9.27;;;5.37;;
41217;SDS011;26950;50.960;7.138;2023-04-28T08:27:03;8.23;;;5.10;;
41217;SDS011;26950;50.960;7.138;2023-04-28T08:29:29;9.10;;;5.37;;
41217;SDS011;26950;50.960;7.138;2023-04-28T08:31:56;11.53;;;5.17;;
41217;SDS011;26950;50.960;7.138;2023-04-28T08:34:24;9.23;;;4.33;;
41217;SDS011;26950;50.960;7.138;2023-04-28T08:36:51;6.60;;;4.73;;
41217;SDS011;26950;50.960;7.138;2023-04-28T08:39:18;8.73;;;4.53;;
41217;SDS011;26950;50.960;7.138;2023-04-28T08:41:46;8.68;;;5.40;;
41217;SDS011;26950;50.960;7.138;2023-04-28T08:44:13;8.43;;;4.83;;
41217;SDS011;26950;50.960;7.138;2023-04-28T08:46:39;8.13;;;5.03;;
41217;SDS011;26950;50.960;7.138;2023-04-28T08:49:06;8.57;;;4.90;;
41217;SDS011;26950;50.960;7.138;2023-04-28T08:51:43;7.17;;;4.60;;
41217;SDS011;26950;50.960;7.138;2023-04-28T08:54:11;11.13;;;4.53;;
41217;SDS011;26950;50.960;7.138;2023-04-28T08:56:40;9.00;;;4.50;;
41217;SDS011;26950;50.960;7.138;2023-04-28T08:59:09;8.10;;;4.70;;
41217;SDS011;26950;50.960;7.138;2023-04-28T09:01:36;10.40;;;4.23;;
41217;SDS011;26950;50.960;7.138;2023-04-28T09:04:03;7.23;;;4.67;;
41217;SDS011;26950;50.960;7.138;2023-04-28T09:06:31;11.03;;;5.30;;
41217;SDS011;26950;50.960;7.138;2023-04-28T09:11:51;9.40;;;5.50;;
41217;SDS011;26950;50.960;7.138;2023-04-28T09:14:19;8.17;;;5.03;;
41217;SDS011;26950;50.960;7.138;2023-04-28T09:16:46;11.27;;;5.00;;
41217;SDS011;26950;50.960;7.138;2023-04-28T09:19:13;11.47;;;5.40;;
41217;SDS011;26950;50.960;7.138;2023-04-28T09:21:46;10.77;;;5.17;;
41217;SDS011;26950;50.960;7.138;2023-04-28T09:24:25;6.47;;;4.53;;
41217;SDS011;26950;50.960;7.138;2023-04-28T09:26:53;8.53;;;5.27;;
41217;SDS011;26950;50.960;7.138;2023-04-28T09:29:20;7.73;;;5.07;;
41217;SDS011;26950;50.960;7.138;2023-04-28T09:31:46;11.93;;;5.13;;
41217;SDS011;26950;50.960;7.138;2023-04-28T09:34:13;8.00;;;5.00;;
41217;SDS011;26950;50.960;7.138;2023-04-28T09:36:40;8.27;;;5.40;;
41217;SDS011;26950;50.960;7.138;2023-04-28T09:39:06;17.40;;;6.60;;
41217;SDS011;26950;50.960;7.138;2023-04-28T09:41:37;8.60;;;5.20;;
41217;SDS011;26950;50.960;7.138;2023-04-28T09:44:12;15.20;;;5.57;;
41217;SDS011;26950;50.960;7.138;2023-04-28T09:46:39;11.10;;;4.83;;
41217;SDS011;26950;50.960;7.138;2023-04-28T09:49:05;9.15;;;5.53;;
41217;SDS011;26950;50.960;7.138;2023-04-28T09:51:32;10.17;;;5.70;;
41217;SDS011;26950;50.960;7.138;2023-04-28T09:53:59;7.80;;;5.27;;
41217;SDS011;26950;50.960;7.138;2023-04-28T09:56:27;8.17;;;5.83;;
41217;SDS011;26950;50.960;7.138;2023-04-28T09:58:56;9.40;;;5.80;;
41217;SDS011;26950;50.960;7.138;2023-04-28T10:01:24;8.63;;;5.80;;
41217;SDS011;26950;50.960;7.138;2023-04-28T10:03:51;11.00;;;6.03;;
41217;SDS011;26950;50.960;7.138;2023-04-28T10:06:18;9.67;;;5.63;;
41217;SDS011;26950;50.960;7.138;2023-04-28T10:08:45;11.17;;;6.00;;
41217;SDS011;26950;50.960;7.138;2023-04-28T10:11:14;9.43;;;5.43;;
41217;SDS011;26950;50.960;7.138;2023-04-28T10:13:41;9.80;;;5.60;;
41217;SDS011;26950;50.960;7.138;2023-04-28T10:16:10;9.83;;;5.83;;
41217;SDS011;26950;50.960;7.138;2023-04-28T10:18:38;8.83;;;5.80;;
41217;SDS011;26950;50.960;7.138;2023-04-28T10:21:05;8.47;;;5.33;;
41217;SDS011;26950;50.960;7.138;2023-04-28T10:26:34;11.17;;;6.00;;
41217;SDS011;26950;50.960;7.138;2023-04-28T10:29:23;10.83;;;5.87;;
41217;SDS011;26950;50.960;7.138;2023-04-28T10:34:42;10.37;;;5.60;;
41217;SDS011;26950;50.960;7.138;2023-04-28T10:37:08;9.07;;;6.03;;
41217;SDS011;26950;50.960;7.138;2023-04-28T10:39:35;16.40;;;6.87;;
41217;SDS011;26950;50.960;7.138;2023-04-28T10:42:02;13.20;;;6.83;;
41217;SDS011;26950;50.960;7.138;2023-04-28T10:44:40;9.43;;;5.87;;
41217;SDS011;26950;50.960;7.138;2023-04-28T10:47:08;9.90;;;6.20;;
41217;SDS011;26950;50.960;7.138;2023-04-28T10:52:46;9.77;;;6.30;;
41217;SDS011;26950;50.960;7.138;2023-04-28T10:55:29;9.53;;;5.97;;
41217;SDS011;26950;50.960;7.138;2023-04-28T11:03:50;10.17;;;5.30;;
41217;SDS011;26950;50.960;7.138;2023-04-28T11:06:25;10.87;;;5.60;;
41217;SDS011;26950;50.960;7.138;2023-04-28T11:08:53;12.60;;;6.37;;
41217;SDS011;26950;50.960;7.138;2023-04-28T11:11:22;8.17;;;5.50;;
41217;SDS011;26950;50.960;7.138;2023-04-28T11:13:50;10.23;;;5.80;;
41217;SDS011;26950;50.960;7.138;2023-04-28T11:16:19;9.20;;;6.07;;
41217;SDS011;26950;50.960;7.138;2023-04-28T11:18:51;8.87;;;5.77;;
41217;SDS011;26950;50.960;7.138;2023-04-28T11:21:19;11.13;;;6.30;;
41217;SDS011;26950;50.960;7.138;2023-04-28T11:23:47;9.63;;;5.30;;
41217;SDS011;26950;50.960;7.138;2023-04-28T11:26:14;9.50;;;6.00;;
41217;SDS011;26950;50.960;7.138;2023-04-28T11:28:48;9.60;;;5.77;;
41217;SDS011;26950;50.960;7.138;2023-04-28T11:31:16;9.57;;;6.00;;
41217;SDS011;26950;50.960;7.138;2023-04-28T11:33:45;8.10;;;5.78;;
41217;SDS011;26950;50.960;7.138;2023-04-28T11:36:24;8.37;;;5.70;;
41217;SDS011;26950;50.960;7.138;2023-04-28T11:38:57;8.83;;;5.30;;
41217;SDS011;26950;50.960;7.138;2023-04-28T11:41:24;6.90;;;5.68;;
41217;SDS011;26950;50.960;7.138;2023-04-28T11:43:51;8.23;;;5.63;;
41217;SDS011;26950;50.960;7.138;2023-04-28T11:46:18;7.40;;;5.18;;
41217;SDS011;26950;50.960;7.138;2023-04-28T11:48:46;6.15;;;5.15;;
41217;SDS011;26950;50.960;7.138;2023-04-28T11:51:31;7.25;;;5.45;;
41217;SDS011;26950;50.960;7.138;2023-04-28T11:54:01;5.90;;;4.72;;
41217;SDS011;26950;50.960;7.138;2023-04-28T11:56:28;7.63;;;4.90;;
41217;SDS011;26950;50.960;7.138;2023-04-28T11:59:02;8.90;;;4.68;;
41217;SDS011;26950;50.960;7.138;2023-04-28T12:01:30;7.63;;;5.10;;
41217;SDS011;26950;50.960;7.138;2023-04-28T12:03:58;6.25;;;4.40;;
41217;SDS011;26950;50.960;7.138;2023-04-28T12:06:25;11.13;;;5.25;;
41217;SDS011;26950;50.960;7.138;2023-04-28T12:08:52;6.68;;;5.03;;
41217;SDS011;26950;50.960;7.138;2023-04-28T12:11:20;6.03;;;4.50;;
41217;SDS011;26950;50.960;7.138;2023-04-28T12:14:02;5.78;;;4.60;;
41217;SDS011;26950;50.960;7.138;2023-04-28T12:16:38;7.90;;;5.10;;
41217;SDS011;26950;50.960;7.138;2023-04-28T12:19:08;6.23;;;4.63;;
41217;SDS011;26950;50.960;7.138;2023-04-28T12:21:35;7.30;;;4.73;;
41217;SDS011;26950;50.960;7.138;2023-04-28T12:24:16;5.35;;;4.82;;
41217;SDS011;26950;50.960;7.138;2023-04-28T12:26:46;5.80;;;4.67;;
41217;SDS011;26950;50.960;7.138;2023-04-28T12:32:00;7.03;;;5.50;;
41217;SDS011;26950;50.960;7.138;2023-04-28T12:34:27;8.00;;;4.95;;
41217;SDS011;26950;50.960;7.138;2023-04-28T12:36:55;5.82;;;4.63;;
41217;SDS011;26950;50.960;7.138;2023-04-28T12:39:21;6.45;;;4.65;;
41217;SDS011;26950;50.960;7.138;2023-04-28T12:41:50;7.43;;;5.05;;
41217;SDS011;26950;50.960;7.138;2023-04-28T12:44:16;5.90;;;4.30;;
41217;SDS011;26950;50.960;7.138;2023-04-28T12:46:43;6.78;;;4.72;;
41217;SDS011;26950;50.960;7.138;2023-04-28T12:49:09;6.75;;;4.43;;
41217;SDS011;26950;50.960;7.138;2023-04-28T12:51:36;7.03;;;3.88;;
41217;SDS011;26950;50.960;7.138;2023-04-28T12:54:03;5.40;;;4.45;;
41217;SDS011;26950;50.960;7.138;2023-04-28T12:56:30;9.65;;;5.43;;
41217;SDS011;26950;50.960;7.138;2023-04-28T12:58:59;7.28;;;5.00;;
41217;SDS011;26950;50.960;7.138;2023-04-28T13:01:27;7.35;;;5.18;;
41217;SDS011;26950;50.960;7.138;2023-04-28T13:03:54;6.10;;;5.03;;
41217;SDS011;26950;50.960;7.138;2023-04-28T13:06:21;7.88;;;5.43;;
41217;SDS011;26950;50.960;7.138;2023-04-28T13:08:47;6.18;;;5.03;;
41217;SDS011;26950;50.960;7.138;2023-04-28T13:11:14;8.18;;;4.50;;
41217;SDS011;26950;50.960;7.138;2023-04-28T13:13:40;4.93;;;4.20;;
41217;SDS011;26950;50.960;7.138;2023-04-28T13:16:10;6.90;;;4.13;;
41217;SDS011;26950;50.960;7.138;2023-04-28T13:18:38;5.82;;;4.07;;
41217;SDS011;26950;50.960;7.138;2023-04-28T13:21:04;5.93;;;3.97;;
41217;SDS011;26950;50.960;7.138;2023-04-28T13:23:31;4.72;;;3.88;;
41217;SDS011;26950;50.960;7.138;2023-04-28T13:25:57;6.38;;;5.07;;
41217;SDS011;26950;50.960;7.138;2023-04-28T13:28:24;7.20;;;4.25;;
41217;SDS011;26950;50.960;7.138;2023-04-28T13:30:50;4.82;;;4.05;;
41217;SDS011;26950;50.960;7.138;2023-04-28T13:33:18;5.50;;;4.18;;
41217;SDS011;26950;50.960;7.138;2023-04-28T13:35:45;7.38;;;4.30;;
41217;SDS011;26950;50.960;7.138;2023-04-28T13:38:12;6.28;;;4.40;;
41217;SDS011;26950;50.960;7.138;2023-04-28T13:40:38;5.25;;;4.07;;
41217;SDS011;26950;50.960;7.138;2023-04-28T13:43:06;5.63;;;4.13;;
41217;SDS011;26950;50.960;7.138;2023-04-28T13:45:32;6.95;;;4.65;;
41217;SDS011;26950;50.960;7.138;2023-04-28T13:47:59;7.47;;;4.57;;
41217;SDS011;26950;50.960;7.138;2023-04-28T13:50:27;5.78;;;4.13;;
41217;SDS011;26950;50.960;7.138;2023-04-28T13:52:53;10.88;;;6.68;;
41217;SDS011;26950;50.960;7.138;2023-04-28T13:55:20;8.45;;;6.35;;
41217;SDS011;26950;50.960;7.138;2023-04-28T13:57:51;9.82;;;7.82;;
41217;SDS011;26950;50.960;7.138;2023-04-28T14:00:18;9.23;;;6.90;;
41217;SDS011;26950;50.960;7.138;2023-04-28T14:02:45;9.45;;;8.45;;
41217;SDS011;26950;50.960;7.138;2023-04-28T14:05:13;10.13;;;8.13;;
41217;SDS011;26950;50.960;7.138;2023-04-28T14:07:42;8.48;;;7.10;;
41217;SDS011;26950;50.960;7.138;2023-04-28T14:10:08;12.77;;;9.02;;
41217;SDS011;26950;50.960;7.138;2023-04-28T14:12:36;9.73;;;7.32;;
41217;SDS011;26950;50.960;7.138;2023-04-28T14:15:03;10.05;;;8.85;;
41217;SDS011;26950;50.960;7.138;2023-04-28T14:17:30;10.15;;;8.20;;
41217;SDS011;26950;50.960;7.138;2023-04-28T14:19:58;9.27;;;8.38;;
41217;SDS011;26950;50.960;7.138;2023-04-28T14:22:25;9.82;;;8.45;;
41217;SDS011;26950;50.960;7.138;2023-04-28T14:24:53;9.98;;;6.50;;
41217;SDS011;26950;50.960;7.138;2023-04-28T14:27:20;6.88;;;4.40;;
41217;SDS011;26950;50.960;7.138;2023-04-28T14:29:46;4.68;;;4.28;;
41217;SDS011;26950;50.960;7.138;2023-04-28T14:32:13;6.28;;;4.55;;
41217;SDS011;26950;50.960;7.138;2023-04-28T14:34:40;6.32;;;4.00;;
41217;SDS011;26950;50.960;7.138;2023-04-28T14:37:06;5.95;;;4.40;;
41217;SDS011;26950;50.960;7.138;2023-04-28T14:39:33;4.40;;;4.00;;
41217;SDS011;26950;50.960;7.138;2023-04-28T14:42:02;4.20;;;3.47;;
41217;SDS011;26950;50.960;7.138;2023-04-28T14:44:29;4.90;;;4.18;;
41217;SDS011;26950;50.960;7.138;2023-04-28T14:46:55;7.90;;;5.03;;
41217;SDS011;26950;50.960;7.138;2023-04-28T14:49:22;6.32;;;5.32;;
41217;SDS011;26950;50.960;7.138;2023-04-28T14:51:48;6.18;;;5.57;;
41217;SDS011;26950;50.960;7.138;2023-04-28T14:54:15;7.70;;;5.88;;
41217;SDS011;26950;50.960;7.138;2023-04-28T14:56:41;6.82;;;5.22;;
41217;SDS011;26950;50.960;7.138;2023-04-28T14:59:10;6.75;;;4.80;;
41217;SDS011;26950;50.960;7.138;2023-04-28T15:01:36;5.95;;;4.97;;
41217;SDS011;26950;50.960;7.138;2023-04-28T15:04:03;5.13;;;4.10;;